The Pas, Canada
Current Conditions -  °F | °C
As of 1:00 AM on Thursday 18 Dec 2014 (Local Time) from CYQD Reporting Station
Overcast Overcast  
Wind Chill: -10°   Ceiling: 1800
Heat Index:   Visibility: 15mi
Dew Point: -2°   Wind: 6mph
Humidity: 85%   Direction: 140°SE
Pressure: 30.09"   Gusts: NA
Location:  53.81°N, 101.25°W
Report Text: CYQD 180700Z 14005KT 15SM OVC018 M17/M19 A3009 RMK NS8 SLP215
Loading
Personal Weather Stations






























Interactive Weather Map New forecast layout! Learn more

10-Day Weather Forecast

Advertisements
Track Severe Weather on mobile